createdAt,value
2022-12-18T00:00:53.855Z,101755.72
2022-12-18T00:03:47.941Z,101763.78
2022-12-18T00:06:38.843Z,101773.00
2022-12-18T00:09:31.579Z,101777.28
2022-12-18T00:12:30.054Z,101789.72
2022-12-18T00:15:18.763Z,101780.31
2022-12-18T00:18:08.141Z,101783.78
2022-12-18T00:20:57.836Z,101786.59
2022-12-18T00:23:49.109Z,101784.09
2022-12-18T00:26:38.660Z,101782.06
2022-12-18T00:29:27.163Z,101788.34
2022-12-18T00:32:15.411Z,101780.22
2022-12-18T00:35:03.761Z,101787.31
2022-12-18T00:37:53.053Z,101796.81
2022-12-18T00:40:43.618Z,101797.31
2022-12-18T00:43:33.709Z,101807.13
2022-12-18T00:46:23.258Z,101818.53
2022-12-18T00:49:13.510Z,101810.00
2022-12-18T00:52:02.738Z,101816.41
2022-12-18T00:54:50.883Z,101809.47
2022-12-18T00:57:41.307Z,101812.38
2022-12-18T01:00:29.855Z,101813.50
2022-12-18T01:03:18.823Z,101814.91
2022-12-18T01:06:09.920Z,101816.09
2022-12-18T01:08:59.043Z,101822.56
2022-12-18T01:11:47.588Z,101832.44
2022-12-18T01:14:37.686Z,101828.75
2022-12-18T01:17:25.990Z,101832.56
2022-12-18T01:20:16.391Z,101833.69
2022-12-18T01:23:04.810Z,101848.91
2022-12-18T01:25:53.764Z,101854.44
2022-12-18T01:28:42.218Z,101859.38
2022-12-18T01:31:34.565Z,101873.22
2022-12-18T01:34:23.914Z,101878.00
2022-12-18T01:37:12.957Z,101883.50
2022-12-18T01:40:01.547Z,101881.63
2022-12-18T01:42:53.060Z,101882.00
2022-12-18T01:45:41.783Z,101884.28
2022-12-18T01:48:32.053Z,101903.06
2022-12-18T01:51:21.033Z,101907.16
2022-12-18T01:54:09.957Z,101906.97
2022-12-18T01:56:59.560Z,101905.63
2022-12-18T01:59:53.987Z,101923.53
2022-12-18T02:02:42.924Z,101924.72
2022-12-18T02:05:43.274Z,101937.03
2022-12-18T02:08:36.735Z,101932.69
2022-12-18T02:11:39.399Z,101939.94
2022-12-18T02:14:34.319Z,101958.50
2022-12-18T02:17:25.297Z,101954.09
2022-12-18T02:20:20.100Z,101967.84
2022-12-18T02:23:21.929Z,101976.59
2022-12-18T02:26:18.328Z,101976.06
2022-12-18T02:29:11.105Z,101975.31
2022-12-18T02:32:02.223Z,101981.94
2022-12-18T02:34:53.476Z,101985.28
2022-12-18T02:37:46.265Z,101981.59
2022-12-18T02:40:35.650Z,101996.09
2022-12-18T02:43:26.249Z,101993.03
2022-12-18T02:46:32.195Z,101995.78
2022-12-18T02:49:38.667Z,102005.66
2022-12-18T02:52:35.645Z,102005.44
2022-12-18T02:55:38.884Z,102019.38
2022-12-18T02:58:40.660Z,102021.56
2022-12-18T03:01:41.635Z,102031.72
2022-12-18T03:04:35.421Z,102035.03
2022-12-18T03:07:30.416Z,102047.50
2022-12-18T03:10:26.937Z,102044.03
2022-12-18T03:13:19.724Z,102050.91
2022-12-18T03:16:13.831Z,102045.25
2022-12-18T03:19:05.918Z,102068.31
2022-12-18T03:21:58.624Z,102063.94
2022-12-18T03:24:49.013Z,102058.84
2022-12-18T03:27:40.181Z,102058.56
2022-12-18T03:30:34.036Z,102061.88
2022-12-18T03:33:30.265Z,102070.34
2022-12-18T03:36:19.733Z,102079.53
2022-12-18T03:39:09.734Z,102082.47
2022-12-18T03:42:06.819Z,102096.41
2022-12-18T03:45:07.869Z,102105.28
2022-12-18T03:48:04.303Z,102108.16
2022-12-18T03:51:02.809Z,102112.94
2022-12-18T03:53:58.230Z,102120.94
2022-12-18T03:56:59.172Z,102136.25
2022-12-18T03:59:52.116Z,102142.00
2022-12-18T04:02:48.698Z,102142.34
2022-12-18T04:05:45.938Z,102155.72
2022-12-18T04:08:37.992Z,102155.00
2022-12-18T04:11:28.753Z,102152.28
2022-12-18T04:14:18.535Z,102160.56
2022-12-18T04:17:10.867Z,102166.38
2022-12-18T04:19:59.527Z,102174.50
2022-12-18T04:22:48.463Z,102184.53
2022-12-18T04:25:38.843Z,102182.63
2022-12-18T04:28:31.052Z,102188.88
2022-12-18T04:31:19.834Z,102190.75
2022-12-18T04:34:08.277Z,102196.44
2022-12-18T04:37:03.041Z,102199.75
2022-12-18T04:39:52.451Z,102214.69
2022-12-18T04:42:53.796Z,102228.81
2022-12-18T04:45:42.479Z,102232.00
2022-12-18T04:48:31.410Z,102234.59
2022-12-18T04:51:25.962Z,102238.34
2022-12-18T04:54:15.409Z,102237.53
2022-12-18T04:57:03.637Z,102246.75
2022-12-18T04:59:53.791Z,102249.06
2022-12-18T05:02:42.169Z,102242.78
2022-12-18T05:05:30.737Z,102254.19
2022-12-18T05:08:19.634Z,102255.38
2022-12-18T05:11:11.867Z,102256.94
2022-12-18T05:14:00.164Z,102262.88
2022-12-18T05:16:50.127Z,102261.00
2022-12-18T05:19:40.840Z,102266.53
2022-12-18T05:22:29.591Z,102278.72
2022-12-18T05:25:18.264Z,102276.91
2022-12-18T05:28:07.526Z,102280.84
2022-12-18T05:30:57.162Z,102285.13
2022-12-18T05:33:47.260Z,102312.06
2022-12-18T05:36:35.435Z,102315.41
2022-12-18T05:39:23.723Z,102322.28
2022-12-18T05:42:12.033Z,102324.81
2022-12-18T05:45:00.826Z,102334.47
2022-12-18T05:47:49.480Z,102330.97
2022-12-18T05:50:40.496Z,102336.06
2022-12-18T05:53:29.718Z,102341.84
2022-12-18T05:56:20.742Z,102348.25
2022-12-18T05:59:09.557Z,102365.28
2022-12-18T06:01:59.191Z,102379.22
2022-12-18T06:04:47.683Z,102385.06
2022-12-18T06:07:37.900Z,102391.06
2022-12-18T06:10:26.064Z,102389.31
2022-12-18T06:13:14.587Z,102400.13
2022-12-18T06:16:05.503Z,102402.59
2022-12-18T06:18:54.363Z,102397.31
2022-12-18T06:21:42.515Z,102400.97
2022-12-18T06:24:33.070Z,102413.22
2022-12-18T06:27:21.805Z,102415.59
2022-12-18T06:30:12.183Z,102430.84
2022-12-18T06:33:01.454Z,102431.72
2022-12-18T06:35:49.928Z,102434.91
2022-12-18T06:38:39.522Z,102443.47
2022-12-18T06:41:30.907Z,102442.38
2022-12-18T06:44:19.217Z,102436.59
2022-12-18T06:47:08.114Z,102449.25
2022-12-18T06:49:56.531Z,102443.59
2022-12-18T06:52:45.509Z,102448.59
2022-12-18T06:55:34.118Z,102450.00
2022-12-18T06:58:24.128Z,102453.28
2022-12-18T07:01:14.714Z,102456.66
2022-12-18T07:04:04.168Z,102465.53
2022-12-18T07:06:52.308Z,102468.13
2022-12-18T07:09:41.020Z,102471.41
2022-12-18T07:12:29.975Z,102466.97
2022-12-18T07:15:20.165Z,102477.47
2022-12-18T07:18:08.459Z,102477.16
2022-12-18T07:20:57.427Z,102487.66
2022-12-18T07:23:46.254Z,102493.53
2022-12-18T07:26:35.303Z,102480.91
2022-12-18T07:29:24.343Z,102487.47
2022-12-18T07:32:14.371Z,102495.56
2022-12-18T07:35:02.850Z,102503.00
2022-12-18T07:37:51.518Z,102517.72
2022-12-18T07:40:39.772Z,102526.72
2022-12-18T07:43:28.539Z,102521.19
2022-12-18T07:46:17.491Z,102525.38
2022-12-18T07:49:08.213Z,102519.03
2022-12-18T07:51:57.815Z,102523.41
2022-12-18T07:54:46.593Z,102534.50
2022-12-18T07:57:49.863Z,102541.25
2022-12-18T08:00:39.699Z,102545.69
2022-12-18T08:03:28.025Z,102547.25
2022-12-18T08:06:18.342Z,102548.94
2022-12-18T08:09:07.000Z,102553.78
2022-12-18T08:11:55.681Z,102566.16
2022-12-18T08:14:44.465Z,102562.25
2022-12-18T08:17:32.872Z,102570.66
2022-12-18T08:20:21.038Z,102559.38
2022-12-18T08:23:11.113Z,102557.41
2022-12-18T08:26:01.290Z,102568.09
2022-12-18T08:28:50.204Z,102573.84
2022-12-18T08:31:39.572Z,102570.06
2022-12-18T08:34:28.152Z,102576.31
2022-12-18T08:37:16.480Z,102577.78
2022-12-18T08:40:07.163Z,102577.44
2022-12-18T08:43:13.106Z,102579.50
2022-12-18T08:46:01.621Z,102577.09
2022-12-18T08:48:50.940Z,102582.91
2022-12-18T08:51:41.398Z,102590.75
2022-12-18T08:54:31.444Z,102588.31
2022-12-18T08:57:21.521Z,102581.78
2022-12-18T09:00:11.167Z,102582.06
2022-12-18T09:03:00.163Z,102584.81
2022-12-18T09:05:49.447Z,102589.78
2022-12-18T09:08:39.970Z,102593.38
2022-12-18T09:11:30.844Z,102593.97
2022-12-18T09:14:20.912Z,102592.63
2022-12-18T09:17:09.184Z,102586.44
2022-12-18T09:19:57.504Z,102586.13
2022-12-18T09:22:45.727Z,102597.06
2022-12-18T09:25:37.121Z,102607.75
2022-12-18T09:28:25.244Z,102599.59
2022-12-18T09:31:18.816Z,102600.03
2022-12-18T09:34:10.102Z,102600.19
2022-12-18T09:36:59.122Z,102605.59
2022-12-18T09:39:47.584Z,102608.09
2022-12-18T09:42:37.060Z,102614.28
2022-12-18T09:45:27.730Z,102615.09
2022-12-18T09:48:23.725Z,102625.44
2022-12-18T09:51:18.504Z,102625.59
2022-12-18T09:54:10.018Z,102617.00
2022-12-18T09:57:01.055Z,102625.94
2022-12-18T09:59:59.574Z,102631.19
2022-12-18T10:02:48.602Z,102631.31
2022-12-18T10:05:49.481Z,102632.84
2022-12-18T10:08:49.653Z,102618.56
2022-12-18T10:11:51.881Z,102620.63
2022-12-18T10:14:52.524Z,102620.19
2022-12-18T10:17:55.164Z,102623.09
2022-12-18T10:20:55.409Z,102633.59
2022-12-18T10:23:58.599Z,102641.41
2022-12-18T10:26:50.829Z,102636.00
2022-12-18T10:29:42.581Z,102628.69
2022-12-18T10:32:34.358Z,102634.84
2022-12-18T10:35:28.839Z,102635.78
2022-12-18T10:38:29.096Z,102644.44
2022-12-18T10:41:29.350Z,102655.72
2022-12-18T10:44:23.360Z,102650.69
2022-12-18T10:47:18.673Z,102650.84
2022-12-18T10:50:40.946Z,102646.44
2022-12-18T10:53:45.601Z,102660.13
2022-12-18T10:56:39.337Z,102659.63
2022-12-18T10:59:30.892Z,102662.88
2022-12-18T11:02:31.316Z,102674.31
2022-12-18T11:05:34.292Z,102658.84
2022-12-18T11:08:26.085Z,102667.75
2022-12-18T11:11:25.438Z,102668.06
2022-12-18T11:14:22.571Z,102675.81
2022-12-18T11:17:26.553Z,102673.25
2022-12-18T11:20:33.114Z,102677.19
2022-12-18T11:23:26.240Z,102676.44
2022-12-18T11:26:16.985Z,102671.22
2022-12-18T11:29:18.763Z,102669.06
2022-12-18T11:32:37.020Z,102664.59
2022-12-18T11:35:51.329Z,102665.84
2022-12-18T11:38:46.866Z,102683.53
2022-12-18T11:42:03.319Z,102666.50
2022-12-18T11:45:01.366Z,102674.16
2022-12-18T11:47:59.361Z,102674.91
2022-12-18T11:50:54.251Z,102681.78
2022-12-18T11:53:45.423Z,102678.09
2022-12-18T11:56:38.750Z,102681.25
2022-12-18T11:59:42.336Z,102679.78
2022-12-18T12:03:03.085Z,102684.78
2022-12-18T12:06:07.733Z,102695.94
2022-12-18T12:09:10.757Z,102694.31
2022-12-18T12:12:12.739Z,102695.00
2022-12-18T12:15:10.750Z,102701.50
2022-12-18T12:18:19.559Z,102697.88
2022-12-18T12:21:19.555Z,102706.72
2022-12-18T12:24:25.617Z,102701.44
2022-12-18T12:27:28.260Z,102715.28
2022-12-18T12:30:24.664Z,102722.59
2022-12-18T12:33:35.147Z,102733.44
2022-12-18T12:36:36.912Z,102725.66
2022-12-18T12:39:31.227Z,102739.03
2022-12-18T12:42:47.001Z,102747.88
2022-12-18T12:45:40.414Z,102758.72
2022-12-18T12:48:44.227Z,102764.19
2022-12-18T12:51:36.852Z,102744.91
2022-12-18T12:54:30.665Z,102778.44
2022-12-18T12:57:29.756Z,102775.38
2022-12-18T13:00:21.305Z,102777.31
2022-12-18T13:03:18.286Z,102786.41
2022-12-18T13:06:17.541Z,102783.53
2022-12-18T13:09:07.481Z,102795.84
2022-12-18T13:16:08.020Z,102805.00
2022-12-18T13:19:06.059Z,102819.72
2022-12-18T13:22:01.000Z,102819.75
2022-12-18T13:24:52.536Z,102821.09
2022-12-18T13:27:59.929Z,102833.53
2022-12-18T13:30:52.602Z,102835.09
2022-12-18T13:34:25.112Z,102845.47
2022-12-18T13:37:20.576Z,102857.97
2022-12-18T13:40:57.072Z,102858.59
2022-12-18T13:43:48.222Z,102851.28
2022-12-18T13:46:47.262Z,102844.22
2022-12-18T13:49:42.561Z,102845.41
2022-12-18T13:52:47.848Z,102855.16
2022-12-18T13:55:48.420Z,102864.06
2022-12-18T13:58:36.818Z,102865.06
2022-12-18T14:01:25.807Z,102877.91
2022-12-18T14:04:24.480Z,102890.81
2022-12-18T14:07:17.136Z,102888.38
2022-12-18T14:10:42.285Z,102889.09
2022-12-18T14:13:32.064Z,102889.97
2022-12-18T14:16:21.452Z,102876.69
2022-12-18T14:19:17.127Z,102897.19
2022-12-18T14:22:05.873Z,102898.91
2022-12-18T14:27:53.696Z,102896.66
2022-12-18T14:30:46.278Z,102906.69
2022-12-18T14:33:35.499Z,102903.63
2022-12-18T14:36:27.891Z,102915.84
2022-12-18T14:39:21.297Z,102919.63
2022-12-18T14:42:14.621Z,102926.34
2022-12-18T14:45:47.461Z,102925.63
2022-12-18T14:48:40.403Z,102935.50
2022-12-18T14:51:34.045Z,102930.91
2022-12-18T14:54:24.464Z,102937.00
2022-12-18T14:57:23.992Z,102938.00
2022-12-18T15:00:20.827Z,102949.91
2022-12-18T15:03:13.402Z,102965.31
2022-12-18T15:06:19.944Z,102956.06
2022-12-18T15:09:26.622Z,102959.09
2022-12-18T15:12:41.778Z,102978.19
2022-12-18T15:15:51.375Z,102974.34
2022-12-18T15:18:47.967Z,102978.28
2022-12-18T15:21:36.583Z,102984.75
2022-12-18T15:24:29.979Z,102984.75
2022-12-18T15:27:32.289Z,102998.72
2022-12-18T15:30:26.792Z,102989.94
2022-12-18T15:33:27.754Z,102988.38
2022-12-18T15:36:21.642Z,102989.44
2022-12-18T15:39:16.321Z,103002.81
2022-12-18T15:42:23.990Z,102997.56
2022-12-18T15:45:17.562Z,102999.53
2022-12-18T15:48:22.490Z,102989.34
2022-12-18T15:51:19.116Z,103002.28
2022-12-18T15:54:57.370Z,103004.00
2022-12-18T15:57:51.995Z,103014.44
2022-12-18T16:00:46.836Z,103016.84
2022-12-18T16:03:37.010Z,103021.53
2022-12-18T16:06:40.339Z,103031.63
2022-12-18T16:09:44.463Z,103050.00
2022-12-18T16:13:29.804Z,103042.41
2022-12-18T16:16:40.841Z,103043.84
2022-12-18T16:19:33.133Z,103048.63
2022-12-18T16:22:24.117Z,103049.56
2022-12-18T16:25:24.235Z,103061.47
2022-12-18T16:28:12.310Z,103045.00
2022-12-18T16:31:01.144Z,103052.75
2022-12-18T16:33:49.653Z,103049.25
2022-12-18T16:36:38.215Z,103045.06
2022-12-18T16:39:28.384Z,103064.38
2022-12-18T16:42:21.779Z,103071.25
2022-12-18T16:45:12.656Z,103051.41
2022-12-18T16:48:01.517Z,103059.84
2022-12-18T16:50:49.857Z,103057.06
2022-12-18T16:53:38.939Z,103055.81
2022-12-18T16:56:29.031Z,103058.00
2022-12-18T16:59:18.426Z,103060.25
2022-12-18T17:02:17.064Z,103072.53
2022-12-18T17:05:08.420Z,103076.03
2022-12-18T17:07:56.832Z,103072.41
2022-12-18T17:10:46.049Z,103077.22
2022-12-18T17:13:36.181Z,103066.63
2022-12-18T17:16:26.717Z,103075.47
2022-12-18T17:19:17.711Z,103088.25
2022-12-18T17:22:08.653Z,103096.47
2022-12-18T17:24:57.099Z,103108.47
2022-12-18T17:27:46.062Z,103099.66
2022-12-18T17:30:35.901Z,103103.34
2022-12-18T17:33:25.968Z,103109.56
2022-12-18T17:36:14.488Z,103108.22
2022-12-18T17:39:04.134Z,103119.56
2022-12-18T17:41:52.621Z,103122.50
2022-12-18T17:44:42.854Z,103119.34
2022-12-18T17:47:32.532Z,103120.78
2022-12-18T17:50:21.684Z,103123.97
2022-12-18T17:53:09.871Z,103124.13
2022-12-18T17:56:01.783Z,103124.22
2022-12-18T17:58:51.841Z,103133.22
2022-12-18T18:02:08.538Z,103132.00
2022-12-18T18:05:07.190Z,103135.50
2022-12-18T18:07:57.589Z,103128.53
2022-12-18T18:10:49.729Z,103135.53
2022-12-18T18:13:55.356Z,103139.13
2022-12-18T18:16:47.798Z,103112.75
2022-12-18T18:19:54.962Z,103141.69
2022-12-18T18:22:56.965Z,103131.81
2022-12-18T18:25:56.551Z,103144.19
2022-12-18T18:28:50.209Z,103146.25
2022-12-18T18:31:41.041Z,103153.88
2022-12-18T18:34:31.962Z,103150.09
2022-12-18T18:37:22.251Z,103159.53
2022-12-18T18:40:13.460Z,103159.63
2022-12-18T18:43:02.876Z,103168.22
2022-12-18T18:45:57.808Z,103170.72
2022-12-18T18:48:47.160Z,103189.44
2022-12-18T18:51:36.970Z,103186.53
2022-12-18T18:54:28.426Z,103184.91
2022-12-18T18:57:20.978Z,103191.16
2022-12-18T19:00:12.937Z,103195.50
2022-12-18T19:03:01.886Z,103194.47
2022-12-18T19:05:56.203Z,103198.16
2022-12-18T19:08:45.085Z,103198.16
2022-12-18T19:11:50.868Z,103205.78
2022-12-18T19:14:41.378Z,103205.44
2022-12-18T19:17:31.891Z,103212.06
2022-12-18T19:20:20.580Z,103202.53
2022-12-18T19:23:09.439Z,103209.66
2022-12-18T19:26:26.883Z,103213.75
2022-12-18T19:29:15.139Z,103215.00
2022-12-18T19:32:05.700Z,103225.75
2022-12-18T19:34:56.624Z,103233.16
2022-12-18T19:37:45.214Z,103235.41
2022-12-18T19:40:38.514Z,103243.03
2022-12-18T19:43:27.003Z,103246.72
2022-12-18T19:46:16.916Z,103241.44
2022-12-18T19:49:11.821Z,103247.16
2022-12-18T19:52:08.296Z,103250.00
2022-12-18T19:55:04.282Z,103248.94
2022-12-18T19:58:23.695Z,103262.06
2022-12-18T20:01:16.491Z,103262.66
2022-12-18T20:04:19.971Z,103263.34
2022-12-18T20:07:12.122Z,103269.81
2022-12-18T20:10:09.461Z,103266.72
2022-12-18T20:12:58.663Z,103275.06
2022-12-18T20:15:54.363Z,103276.03
2022-12-18T20:18:44.741Z,103272.50
2022-12-18T20:21:35.947Z,103273.78
2022-12-18T20:24:26.877Z,103280.91
2022-12-18T20:27:19.647Z,103274.69
2022-12-18T20:30:10.248Z,103285.31
2022-12-18T20:33:00.397Z,103281.09
2022-12-18T20:35:50.501Z,103287.69
2022-12-18T20:38:42.488Z,103279.53
2022-12-18T20:41:38.359Z,103280.78
2022-12-18T20:44:28.875Z,103274.44
2022-12-18T20:47:17.952Z,103280.50
2022-12-18T20:50:08.788Z,103282.47
2022-12-18T20:52:58.594Z,103288.53
2022-12-18T20:55:49.851Z,103284.03
2022-12-18T20:58:39.704Z,103295.63
2022-12-18T21:01:30.708Z,103295.03
2022-12-18T21:04:19.796Z,103297.78
2022-12-18T21:07:09.313Z,103290.81
2022-12-18T21:09:57.666Z,103297.03
2022-12-18T21:12:58.183Z,103304.47
2022-12-18T21:15:48.561Z,103304.19
2022-12-18T21:18:37.470Z,103302.34
2022-12-18T21:21:27.128Z,103296.78
2022-12-18T21:24:17.420Z,103305.25
2022-12-18T21:27:06.381Z,103294.84
2022-12-18T21:29:57.061Z,103306.97
2022-12-18T21:32:45.669Z,103303.69
2022-12-18T21:35:34.338Z,103303.59
2022-12-18T21:38:23.040Z,103301.97
2022-12-18T21:41:37.440Z,103312.41
2022-12-18T21:44:29.798Z,103320.06
2022-12-18T21:47:23.346Z,103318.94
2022-12-18T21:50:12.611Z,103321.81
2022-12-18T21:53:01.413Z,103331.81
2022-12-18T21:55:58.596Z,103323.81
2022-12-18T21:58:55.433Z,103329.06
2022-12-18T22:01:46.671Z,103329.75
2022-12-18T22:04:37.558Z,103323.47
2022-12-18T22:07:27.100Z,103325.13
2022-12-18T22:10:16.992Z,103321.09
2022-12-18T22:13:06.093Z,103326.66
2022-12-18T22:15:54.517Z,103329.31
2022-12-18T22:18:43.357Z,103338.34
2022-12-18T22:21:34.101Z,103344.88
2022-12-18T22:24:24.390Z,103341.75
2022-12-18T22:27:13.278Z,103347.72
2022-12-18T22:30:06.643Z,103341.75
2022-12-18T22:32:56.433Z,103348.16
2022-12-18T22:35:45.120Z,103354.69
2022-12-18T22:38:36.236Z,103355.91
2022-12-18T22:41:24.925Z,103353.97
2022-12-18T22:44:15.947Z,103345.44
2022-12-18T22:47:07.408Z,103354.72
2022-12-18T22:49:56.900Z,103351.63
2022-12-18T22:52:45.603Z,103355.63
2022-12-18T22:55:36.183Z,103351.88
2022-12-18T22:58:24.995Z,103354.69
2022-12-18T23:01:22.431Z,103352.53
2022-12-18T23:04:12.733Z,103361.44
2022-12-18T23:07:02.408Z,103346.50
2022-12-18T23:09:52.304Z,103356.44
2022-12-18T23:12:51.737Z,103347.41
2022-12-18T23:15:44.748Z,103353.63
2022-12-18T23:18:34.910Z,103355.81
2022-12-18T23:21:24.613Z,103363.47
2022-12-18T23:24:15.025Z,103362.56
2022-12-18T23:27:05.009Z,103363.97
2022-12-18T23:29:59.045Z,103366.47
2022-12-18T23:32:48.255Z,103377.97
2022-12-18T23:35:37.449Z,103374.19
2022-12-18T23:38:26.481Z,103385.97
2022-12-18T23:41:17.596Z,103375.38
2022-12-18T23:44:06.576Z,103382.06
2022-12-18T23:46:57.643Z,103401.63
2022-12-18T23:49:46.688Z,103393.56
2022-12-18T23:52:36.220Z,103392.66
2022-12-18T23:55:24.858Z,103390.88
2022-12-18T23:58:19.715Z,103401.00
